createdAt,value
2023-01-01T00:00:10.836Z,861.72
2023-01-01T00:01:10.769Z,861.78
2023-01-01T00:02:10.768Z,861.78
2023-01-01T00:03:10.738Z,861.82
2023-01-01T00:04:10.733Z,861.81
2023-01-01T00:05:10.721Z,861.74
2023-01-01T00:06:10.688Z,861.74
2023-01-01T00:07:10.681Z,861.76
2023-01-01T00:08:10.665Z,861.75
2023-01-01T00:09:10.679Z,861.74
2023-01-01T00:10:10.646Z,861.72
2023-01-01T00:11:10.675Z,861.71
2023-01-01T00:12:10.626Z,861.71
2023-01-01T00:13:10.620Z,861.71
2023-01-01T00:14:12.663Z,861.68
2023-01-01T00:15:10.605Z,861.62
2023-01-01T00:16:10.672Z,861.69
2023-01-01T00:17:10.608Z,861.64
2023-01-01T00:18:10.562Z,861.62
2023-01-01T00:19:10.557Z,861.62
2023-01-01T00:20:10.547Z,861.58
2023-01-01T00:21:10.541Z,861.58
2023-01-01T00:22:44.139Z,861.63
2023-01-01T00:23:11.540Z,861.63
2023-01-01T00:24:10.501Z,861.69
2023-01-01T00:25:10.483Z,861.70
2023-01-01T00:26:10.474Z,861.73
2023-01-01T00:27:10.570Z,861.73
2023-01-01T00:28:10.450Z,861.71
2023-01-01T00:29:10.492Z,861.71
2023-01-01T00:30:10.433Z,861.75
2023-01-01T00:31:10.423Z,861.69
2023-01-01T00:32:11.766Z,861.69
2023-01-01T00:33:10.435Z,861.70
2023-01-01T00:34:10.386Z,861.67
2023-01-01T00:35:10.411Z,861.67
2023-01-01T00:36:10.375Z,861.63
2023-01-01T00:37:10.356Z,861.64
2023-01-01T00:38:10.353Z,861.63
2023-01-01T00:39:10.336Z,861.66
2023-01-01T00:40:10.332Z,861.67
2023-01-01T00:41:10.327Z,861.69
2023-01-01T00:42:10.299Z,861.62
2023-01-01T00:43:10.292Z,861.61
2023-01-01T00:44:10.289Z,861.57
2023-01-01T00:45:14.200Z,861.60
2023-01-01T00:46:11.287Z,861.56
2023-01-01T00:47:10.295Z,861.60
2023-01-01T00:48:10.233Z,861.56
2023-01-01T00:49:10.245Z,861.56
2023-01-01T00:50:10.222Z,861.56
2023-01-01T00:51:10.204Z,861.57
2023-01-01T00:52:10.192Z,861.57
2023-01-01T00:53:10.218Z,861.60
2023-01-01T00:54:10.188Z,861.58
2023-01-01T00:55:10.172Z,861.65
2023-01-01T00:56:10.154Z,861.62
2023-01-01T00:57:10.142Z,861.63
2023-01-01T00:58:10.129Z,861.60
2023-01-01T00:59:10.165Z,861.58
2023-01-01T01:00:10.124Z,861.58
2023-01-01T01:01:10.226Z,861.52
2023-01-01T01:02:10.244Z,861.53
2023-01-01T01:03:10.136Z,861.52
2023-01-01T01:04:10.060Z,861.52
2023-01-01T01:05:10.095Z,861.51
2023-01-01T01:06:10.038Z,861.50
2023-01-01T01:07:10.043Z,861.51
2023-01-01T01:08:10.020Z,861.47
2023-01-01T01:09:10.015Z,861.45
2023-01-01T01:10:10.030Z,861.46
2023-01-01T01:11:10.017Z,861.43
2023-01-01T01:12:18.764Z,861.36
2023-01-01T01:13:10.967Z,861.43
2023-01-01T01:14:09.952Z,861.42
2023-01-01T01:15:09.947Z,861.41
2023-01-01T01:16:09.945Z,861.39
2023-01-01T01:17:09.953Z,861.39
2023-01-01T01:18:09.910Z,861.42
2023-01-01T01:19:09.910Z,861.42
2023-01-01T01:20:09.928Z,861.42
2023-01-01T01:21:09.903Z,861.38
2023-01-01T01:22:09.868Z,861.38
2023-01-01T01:23:09.881Z,861.39
2023-01-01T01:24:09.845Z,861.43
2023-01-01T01:25:09.849Z,861.41
2023-01-01T01:26:09.822Z,861.43
2023-01-01T01:27:09.818Z,861.49
2023-01-01T01:28:09.801Z,861.47
2023-01-01T01:29:09.839Z,861.49
2023-01-01T01:30:09.802Z,861.53
2023-01-01T01:31:09.792Z,861.61
2023-01-01T01:32:09.759Z,861.60
2023-01-01T01:33:09.753Z,861.64
2023-01-01T01:34:15.890Z,861.63
2023-01-01T01:35:10.765Z,861.65
2023-01-01T01:36:09.819Z,861.66
2023-01-01T01:37:09.724Z,861.71
2023-01-01T01:38:09.690Z,861.69
2023-01-01T01:39:09.685Z,861.75
2023-01-01T01:40:09.670Z,861.77
2023-01-01T01:41:20.451Z,861.76
2023-01-01T01:42:10.668Z,861.70
2023-01-01T01:43:09.643Z,861.69
2023-01-01T01:44:09.626Z,861.64
2023-01-01T01:45:09.625Z,861.64
2023-01-01T01:46:09.669Z,861.65
2023-01-01T01:47:09.621Z,861.65
2023-01-01T01:48:09.612Z,861.62
2023-01-01T01:49:09.576Z,861.62
2023-01-01T01:50:09.564Z,861.59
2023-01-01T01:51:09.556Z,861.65
2023-01-01T01:52:09.546Z,861.68
2023-01-01T01:53:09.583Z,861.62
2023-01-01T01:54:09.521Z,861.62
2023-01-01T01:55:09.519Z,861.65
2023-01-01T01:56:09.515Z,861.61
2023-01-01T01:57:09.494Z,861.59
2023-01-01T01:58:09.475Z,861.57
2023-01-01T01:59:09.549Z,861.56
2023-01-01T02:00:11.428Z,861.57
2023-01-01T02:01:09.588Z,861.59
2023-01-01T02:02:09.665Z,861.58
2023-01-01T02:03:09.498Z,861.63
2023-01-01T02:04:09.426Z,861.66
2023-01-01T02:05:09.444Z,861.55
2023-01-01T02:06:09.393Z,861.53
2023-01-01T02:07:09.382Z,861.45
2023-01-01T02:08:09.373Z,861.45
2023-01-01T02:09:09.391Z,861.45
2023-01-01T02:10:09.366Z,861.51
2023-01-01T02:11:09.377Z,861.45
2023-01-01T02:12:09.330Z,861.47
2023-01-01T02:13:09.318Z,861.41
2023-01-01T02:14:09.315Z,861.40
2023-01-01T02:15:09.293Z,861.36
2023-01-01T02:16:09.423Z,861.33
2023-01-01T02:17:09.309Z,861.38
2023-01-01T02:18:09.268Z,861.34
2023-01-01T02:19:09.253Z,861.34
2023-01-01T02:20:09.249Z,861.40
2023-01-01T02:21:09.231Z,861.42
2023-01-01T02:22:09.233Z,861.46
2023-01-01T02:23:09.244Z,861.44
2023-01-01T02:24:09.199Z,861.37
2023-01-01T02:25:09.209Z,861.33
2023-01-01T02:26:09.176Z,861.34
2023-01-01T02:27:09.194Z,861.36
2023-01-01T02:28:09.152Z,861.32
2023-01-01T02:29:09.162Z,861.29
2023-01-01T02:30:09.133Z,861.25
2023-01-01T02:31:09.146Z,861.23
2023-01-01T02:32:09.231Z,861.27
2023-01-01T02:33:09.144Z,861.24
2023-01-01T02:34:09.091Z,861.25
2023-01-01T02:35:09.103Z,861.14
2023-01-01T02:36:09.075Z,861.15
2023-01-01T02:37:09.055Z,861.17
2023-01-01T02:38:09.056Z,861.14
2023-01-01T02:39:09.035Z,861.13
2023-01-01T02:40:09.029Z,861.11
2023-01-01T02:41:09.046Z,861.11
2023-01-01T02:42:09.004Z,861.10
2023-01-01T02:43:09.080Z,861.11
2023-01-01T02:44:08.983Z,861.07
2023-01-01T02:45:08.971Z,861.06
2023-01-01T02:46:09.041Z,861.04
2023-01-01T02:47:08.952Z,861.08
2023-01-01T02:48:08.941Z,861.04
2023-01-01T02:49:10.838Z,861.12
2023-01-01T02:50:08.931Z,861.10
2023-01-01T02:51:08.905Z,861.05
2023-01-01T02:52:08.948Z,861.16
2023-01-01T02:53:08.925Z,861.16
2023-01-01T02:54:08.897Z,861.12
2023-01-01T02:55:08.887Z,861.17
2023-01-01T02:56:08.854Z,861.06
2023-01-01T02:57:08.866Z,861.02
2023-01-01T02:58:08.881Z,860.96
2023-01-01T02:59:08.818Z,861.00
2023-01-01T03:00:08.811Z,860.93
2023-01-01T03:01:08.974Z,860.94
2023-01-01T03:02:08.975Z,860.99
2023-01-01T03:03:08.950Z,860.98
2023-01-01T03:04:08.826Z,860.94
2023-01-01T03:05:08.755Z,861.00
2023-01-01T03:06:08.743Z,860.99
2023-01-01T03:07:08.731Z,860.99
2023-01-01T03:08:08.724Z,861.06
2023-01-01T03:09:08.712Z,860.99
2023-01-01T03:10:08.747Z,861.06
2023-01-01T03:11:08.702Z,861.06
2023-01-01T03:12:08.688Z,861.08
2023-01-01T03:13:08.691Z,861.08
2023-01-01T03:14:08.658Z,861.11
2023-01-01T03:15:08.657Z,861.13
2023-01-01T03:16:08.759Z,861.18
2023-01-01T03:17:08.639Z,861.14
2023-01-01T03:18:08.643Z,861.15
2023-01-01T03:19:08.605Z,861.19
2023-01-01T03:20:08.600Z,861.20
2023-01-01T03:21:08.593Z,861.13
2023-01-01T03:22:08.594Z,861.14
2023-01-01T03:23:08.585Z,861.13
2023-01-01T03:24:08.554Z,861.18
2023-01-01T03:25:08.544Z,861.17
2023-01-01T03:26:08.528Z,861.14
2023-01-01T03:27:08.613Z,861.17
2023-01-01T03:28:08.531Z,861.22
2023-01-01T03:29:08.517Z,861.21
2023-01-01T03:30:08.507Z,861.21
2023-01-01T03:31:08.515Z,861.22
2023-01-01T03:32:08.479Z,861.20
2023-01-01T03:33:08.460Z,861.22
2023-01-01T03:34:08.485Z,861.16
2023-01-01T03:35:08.428Z,861.25
2023-01-01T03:36:08.427Z,861.24
2023-01-01T03:37:08.418Z,861.22
2023-01-01T03:38:08.402Z,861.25
2023-01-01T03:39:08.406Z,861.21
2023-01-01T03:40:08.431Z,861.20
2023-01-01T03:41:08.366Z,861.21
2023-01-01T03:42:08.376Z,861.20
2023-01-01T03:43:08.347Z,861.21
2023-01-01T03:44:08.337Z,861.28
2023-01-01T03:45:08.343Z,861.29
2023-01-01T03:46:08.351Z,861.28
2023-01-01T03:47:08.299Z,861.28
2023-01-01T03:48:08.304Z,861.24
2023-01-01T03:49:08.302Z,861.21
2023-01-01T03:50:08.383Z,861.22
2023-01-01T03:51:08.259Z,861.21
2023-01-01T03:52:08.284Z,861.23
2023-01-01T03:53:08.241Z,861.20
2023-01-01T03:54:08.231Z,861.21
2023-01-01T03:55:08.220Z,861.21
2023-01-01T03:56:08.214Z,861.26
2023-01-01T03:57:08.195Z,861.23
2023-01-01T03:58:08.256Z,861.28
2023-01-01T03:59:08.172Z,861.22
2023-01-01T04:00:08.179Z,861.23
2023-01-01T04:01:08.187Z,861.23
2023-01-01T04:02:08.211Z,861.23
2023-01-01T04:03:08.242Z,861.19
2023-01-01T04:04:08.155Z,861.22
2023-01-01T04:05:08.110Z,861.21
2023-01-01T04:06:08.100Z,861.22
2023-01-01T04:07:15.204Z,861.23
2023-01-01T04:08:09.087Z,861.17
2023-01-01T04:09:08.096Z,861.24
2023-01-01T04:10:08.055Z,861.23
2023-01-01T04:11:08.043Z,861.19
2023-01-01T04:12:08.038Z,861.11
2023-01-01T04:13:08.025Z,861.20
2023-01-01T04:14:08.028Z,861.20
2023-01-01T04:15:08.028Z,861.23
2023-01-01T04:16:08.079Z,861.21
2023-01-01T04:17:07.998Z,861.25
2023-01-01T04:18:07.976Z,861.21
2023-01-01T04:19:07.957Z,861.21
2023-01-01T04:20:07.957Z,861.22
2023-01-01T04:21:07.966Z,861.26
2023-01-01T04:22:07.947Z,861.25
2023-01-01T04:23:07.909Z,861.21
2023-01-01T04:24:07.903Z,861.18
2023-01-01T04:25:07.895Z,861.18
2023-01-01T04:26:07.894Z,861.23
2023-01-01T04:27:07.925Z,861.18
2023-01-01T04:28:07.860Z,861.22
2023-01-01T04:29:07.856Z,861.25
2023-01-01T04:30:07.839Z,861.28
2023-01-01T04:31:07.826Z,861.21
2023-01-01T04:32:07.833Z,861.26
2023-01-01T04:33:07.834Z,861.26
2023-01-01T04:34:07.809Z,861.28
2023-01-01T04:35:07.781Z,861.31
2023-01-01T04:36:07.788Z,861.37
2023-01-01T04:37:12.896Z,861.39
2023-01-01T04:38:08.753Z,861.39
2023-01-01T04:39:07.800Z,861.38
2023-01-01T04:40:07.743Z,861.42
2023-01-01T04:41:07.728Z,861.42
2023-01-01T04:42:07.720Z,861.41
2023-01-01T04:43:07.696Z,861.40
2023-01-01T04:44:07.700Z,861.42
2023-01-01T04:45:07.698Z,861.42
2023-01-01T04:46:07.721Z,861.43
2023-01-01T04:47:07.674Z,861.40
2023-01-01T04:48:07.651Z,861.40
2023-01-01T04:49:07.705Z,861.38
2023-01-01T04:50:07.623Z,861.39
2023-01-01T04:51:07.630Z,861.45
2023-01-01T04:52:07.602Z,861.40
2023-01-01T04:53:07.601Z,861.47
2023-01-01T04:54:07.587Z,861.36
2023-01-01T04:55:07.568Z,861.43
2023-01-01T04:56:07.559Z,861.41
2023-01-01T04:57:07.579Z,861.39
2023-01-01T04:58:07.536Z,861.37
2023-01-01T04:59:07.542Z,861.37
2023-01-01T05:00:07.528Z,861.40
2023-01-01T05:01:07.671Z,861.39
2023-01-01T05:02:07.577Z,861.39
2023-01-01T05:03:07.544Z,861.41
2023-01-01T05:04:07.485Z,861.43
2023-01-01T05:05:07.552Z,861.38
2023-01-01T05:06:07.452Z,861.42
2023-01-01T05:07:07.438Z,861.39
2023-01-01T05:08:07.428Z,861.40
2023-01-01T05:09:07.449Z,861.37
2023-01-01T05:10:07.422Z,861.42
2023-01-01T05:11:07.404Z,861.37
2023-01-01T05:12:07.385Z,861.38
2023-01-01T05:13:07.390Z,861.42
2023-01-01T05:14:07.385Z,861.40
2023-01-01T05:15:07.396Z,861.40
2023-01-01T05:16:07.400Z,861.38
2023-01-01T05:17:07.353Z,861.41
2023-01-01T05:18:07.322Z,861.40
2023-01-01T05:19:07.307Z,861.44
2023-01-01T05:20:07.301Z,861.44
2023-01-01T05:21:07.322Z,861.42
2023-01-01T05:22:10.862Z,861.44
2023-01-01T05:23:07.264Z,861.40
2023-01-01T05:24:07.268Z,861.45
2023-01-01T05:25:07.262Z,861.41
2023-01-01T05:26:07.242Z,861.43
2023-01-01T05:27:07.310Z,861.38
2023-01-01T05:28:07.212Z,861.40
2023-01-01T05:29:13.691Z,861.42
2023-01-01T05:30:08.230Z,861.36
2023-01-01T05:31:07.178Z,861.30
2023-01-01T05:32:38.504Z,861.32
2023-01-01T05:33:38.477Z,861.38
2023-01-01T05:34:38.472Z,861.34
2023-01-01T05:35:38.465Z,861.35
2023-01-01T05:36:38.862Z,861.36
2023-01-01T05:37:38.438Z,861.34
2023-01-01T05:38:38.432Z,861.35
2023-01-01T05:39:38.415Z,861.38
2023-01-01T05:40:38.412Z,861.32
2023-01-01T05:41:38.426Z,861.34
2023-01-01T05:42:38.393Z,861.33
2023-01-01T05:43:38.368Z,861.33
2023-01-01T05:44:38.379Z,861.32
2023-01-01T05:45:38.435Z,861.31
2023-01-01T05:46:38.444Z,861.29
2023-01-01T05:47:38.321Z,861.29
2023-01-01T05:48:38.315Z,861.24
2023-01-01T05:49:38.352Z,861.28
2023-01-01T05:50:38.292Z,861.25
2023-01-01T05:52:08.818Z,861.29
2023-01-01T05:53:08.772Z,861.23
2023-01-01T05:54:39.837Z,861.30
2023-01-01T05:55:39.826Z,861.34
2023-01-01T05:56:39.820Z,861.36
2023-01-01T05:57:39.821Z,861.37
2023-01-01T05:58:39.800Z,861.34
2023-01-01T05:59:39.796Z,861.42
2023-01-01T06:00:39.770Z,861.38
2023-01-01T06:01:45.590Z,861.39
2023-01-01T06:02:40.792Z,861.38
2023-01-01T06:03:39.733Z,861.33
2023-01-01T06:04:39.771Z,861.35
2023-01-01T06:05:39.711Z,861.38
2023-01-01T06:06:39.710Z,861.38
2023-01-01T06:07:43.305Z,861.44
2023-01-01T06:08:40.713Z,861.43
2023-01-01T06:09:39.693Z,861.48
2023-01-01T06:10:39.658Z,861.46
2023-01-01T06:11:39.644Z,861.52
2023-01-01T06:12:39.638Z,861.52
2023-01-01T06:13:39.621Z,861.51
2023-01-01T06:14:39.625Z,861.47
2023-01-01T06:15:39.630Z,861.46
2023-01-01T06:16:39.641Z,861.49
2023-01-01T06:17:39.596Z,861.50
2023-01-01T06:18:39.568Z,861.52
2023-01-01T06:19:39.559Z,861.50
2023-01-01T06:20:39.550Z,861.55
2023-01-01T06:21:39.563Z,861.57
2023-01-01T06:22:39.526Z,861.55
2023-01-01T06:23:39.552Z,861.62
2023-01-01T06:24:39.633Z,861.58
2023-01-01T06:25:39.490Z,861.64
2023-01-01T06:26:39.481Z,861.62
2023-01-01T06:27:39.503Z,861.64
2023-01-01T06:28:39.475Z,861.69
2023-01-01T06:29:39.456Z,861.66
2023-01-01T06:30:39.462Z,861.73
2023-01-01T06:31:40.953Z,861.78
2023-01-01T06:32:39.444Z,861.76
2023-01-01T06:33:39.401Z,861.75
2023-01-01T06:34:39.501Z,861.76
2023-01-01T06:35:39.383Z,861.76
2023-01-01T06:36:39.375Z,861.79
2023-01-01T06:37:39.384Z,861.73
2023-01-01T06:38:39.423Z,861.76
2023-01-01T06:39:39.392Z,861.75
2023-01-01T06:40:39.339Z,861.76
2023-01-01T06:41:39.316Z,861.79
2023-01-01T06:42:39.309Z,861.79
2023-01-01T06:43:39.297Z,861.78
2023-01-01T06:44:39.388Z,861.82
2023-01-01T06:45:39.271Z,861.85
2023-01-01T06:46:39.298Z,861.84
2023-01-01T06:47:39.251Z,861.84
2023-01-01T06:48:39.243Z,861.84
2023-01-01T06:49:39.231Z,861.87
2023-01-01T06:50:39.255Z,861.83
2023-01-01T06:51:39.221Z,861.80
2023-01-01T06:52:39.212Z,861.80
2023-01-01T06:53:39.192Z,861.81
2023-01-01T06:54:39.174Z,861.80
2023-01-01T06:55:39.179Z,861.82
2023-01-01T06:56:39.190Z,861.79
2023-01-01T06:57:39.138Z,861.76
2023-01-01T06:58:39.143Z,861.80
2023-01-01T06:59:39.120Z,861.84
2023-01-01T07:00:39.107Z,861.79
2023-01-01T07:01:39.293Z,861.79
2023-01-01T07:02:39.242Z,861.76
2023-01-01T07:03:39.103Z,861.75
2023-01-01T07:04:39.069Z,861.72
2023-01-01T07:05:39.058Z,861.71
2023-01-01T07:06:39.044Z,861.70
2023-01-01T07:07:39.027Z,861.69
2023-01-01T07:08:39.051Z,861.66
2023-01-01T07:09:39.015Z,861.68
2023-01-01T07:10:39.007Z,861.65
2023-01-01T07:11:39.005Z,861.66
2023-01-01T07:12:38.983Z,861.69
2023-01-01T07:13:39.000Z,861.66
2023-01-01T07:14:38.980Z,861.68
2023-01-01T07:15:38.994Z,861.63
2023-01-01T07:16:39.011Z,861.64
2023-01-01T07:17:38.918Z,861.63
2023-01-01T07:18:38.913Z,861.59
2023-01-01T07:19:38.915Z,861.62
2023-01-01T07:20:38.932Z,861.58
2023-01-01T07:21:38.882Z,861.58
2023-01-01T07:22:38.867Z,861.56
2023-01-01T07:23:38.859Z,861.56
2023-01-01T07:24:38.849Z,861.59
2023-01-01T07:25:38.832Z,861.56
2023-01-01T07:26:38.867Z,861.63
2023-01-01T07:27:38.850Z,861.62
2023-01-01T07:28:38.799Z,861.65
2023-01-01T07:29:38.786Z,861.65
2023-01-01T07:30:38.796Z,861.66
2023-01-01T07:31:38.823Z,861.70
2023-01-01T07:32:38.777Z,861.67
2023-01-01T07:33:38.742Z,861.71
2023-01-01T07:34:38.733Z,861.70
2023-01-01T07:35:38.724Z,861.69
2023-01-01T07:36:38.732Z,861.68
2023-01-01T07:37:38.700Z,861.68
2023-01-01T07:38:38.723Z,861.68
2023-01-01T07:39:38.784Z,861.67
2023-01-01T07:40:38.668Z,861.66
2023-01-01T07:41:38.667Z,861.69
2023-01-01T07:42:38.644Z,861.66
2023-01-01T07:43:38.653Z,861.62
2023-01-01T07:44:38.646Z,861.65
2023-01-01T07:45:38.627Z,861.62
2023-01-01T07:46:38.725Z,861.58
2023-01-01T07:47:38.589Z,861.69
2023-01-01T07:48:40.327Z,861.64
2023-01-01T07:49:38.564Z,861.69
2023-01-01T07:50:38.572Z,861.71
2023-01-01T07:51:38.554Z,861.72
2023-01-01T07:52:38.538Z,861.78
2023-01-01T07:53:38.523Z,861.77
2023-01-01T07:54:38.520Z,861.75
2023-01-01T07:55:38.499Z,861.74
2023-01-01T07:56:38.522Z,861.77
2023-01-01T07:57:38.488Z,861.77
2023-01-01T07:58:38.475Z,861.77
2023-01-01T07:59:38.494Z,861.79
2023-01-01T08:00:38.552Z,861.82
2023-01-01T08:01:38.561Z,861.78
2023-01-01T08:02:38.508Z,861.85
2023-01-01T08:03:38.443Z,861.84
2023-01-01T08:04:38.405Z,861.83
2023-01-01T08:05:38.395Z,861.84
2023-01-01T08:06:38.401Z,861.84
2023-01-01T08:07:38.418Z,861.89
2023-01-01T08:08:38.484Z,861.87
2023-01-01T08:09:38.346Z,861.86
2023-01-01T08:10:38.340Z,861.86
2023-01-01T08:11:38.340Z,861.85
2023-01-01T08:12:38.318Z,861.89
2023-01-01T08:13:38.342Z,861.88
2023-01-01T08:14:38.295Z,861.89
2023-01-01T08:15:38.356Z,861.90
2023-01-01T08:16:38.273Z,861.88
2023-01-01T08:17:44.278Z,861.89
2023-01-01T08:18:39.251Z,861.88
2023-01-01T08:19:38.322Z,861.86
2023-01-01T08:20:38.232Z,861.84
2023-01-01T08:21:38.218Z,861.83
2023-01-01T08:22:38.208Z,861.89
2023-01-01T08:23:38.207Z,861.95
2023-01-01T08:24:38.191Z,861.91
2023-01-01T08:25:38.207Z,861.98
2023-01-01T08:26:38.165Z,861.97
2023-01-01T08:27:38.210Z,862.00
2023-01-01T08:28:38.151Z,861.98
2023-01-01T08:29:38.140Z,861.92
2023-01-01T08:30:38.140Z,861.91
2023-01-01T08:31:38.219Z,861.89
2023-01-01T08:32:38.103Z,861.88
2023-01-01T08:33:38.092Z,861.83
2023-01-01T08:34:38.078Z,861.88
2023-01-01T08:35:38.065Z,861.86
2023-01-01T08:36:38.073Z,861.88
2023-01-01T08:37:38.083Z,861.89
2023-01-01T08:38:38.039Z,861.95
2023-01-01T08:39:38.025Z,861.87
2023-01-01T08:40:38.008Z,861.88
2023-01-01T08:41:37.998Z,861.85
2023-01-01T08:42:38.011Z,861.83
2023-01-01T08:43:38.023Z,861.82
2023-01-01T08:44:37.969Z,861.82
2023-01-01T08:45:37.978Z,861.83
2023-01-01T08:46:38.017Z,861.83
2023-01-01T08:47:37.955Z,861.81
2023-01-01T08:48:37.924Z,861.77
2023-01-01T08:49:37.985Z,861.75
2023-01-01T08:50:37.910Z,861.77
2023-01-01T08:51:37.887Z,861.82
2023-01-01T08:52:37.878Z,861.86
2023-01-01T08:53:37.867Z,861.85
2023-01-01T08:54:37.857Z,861.84
2023-01-01T08:55:37.892Z,861.83
2023-01-01T08:56:37.854Z,861.84
2023-01-01T08:57:37.822Z,861.85
2023-01-01T08:58:37.818Z,861.76
2023-01-01T08:59:37.795Z,861.83
2023-01-01T09:00:37.792Z,861.83
2023-01-01T09:01:37.933Z,861.88
2023-01-01T09:02:38.097Z,861.81
2023-01-01T09:03:37.816Z,861.87
2023-01-01T09:04:37.755Z,861.88
2023-01-01T09:05:37.736Z,861.89
2023-01-01T09:06:37.738Z,861.91
2023-01-01T09:07:37.747Z,861.86
2023-01-01T09:08:37.715Z,861.87
2023-01-01T09:09:37.691Z,861.87
2023-01-01T09:10:37.684Z,861.92
2023-01-01T09:11:37.676Z,861.93
2023-01-01T09:12:37.670Z,861.88
2023-01-01T09:13:37.687Z,861.90
2023-01-01T09:14:37.641Z,861.90
2023-01-01T09:15:37.641Z,861.84
2023-01-01T09:16:43.856Z,861.84
2023-01-01T09:17:38.603Z,861.86
2023-01-01T09:18:37.594Z,861.92
2023-01-01T09:19:37.613Z,861.86
2023-01-01T09:20:37.571Z,861.84
2023-01-01T09:21:37.577Z,861.88
2023-01-01T09:22:37.554Z,861.89
2023-01-01T09:23:37.541Z,861.88
2023-01-01T09:24:37.528Z,861.91
2023-01-01T09:25:37.554Z,861.90
2023-01-01T09:26:37.504Z,861.90
2023-01-01T09:27:37.503Z,861.94
2023-01-01T09:28:37.482Z,861.85
2023-01-01T09:29:37.478Z,861.88
2023-01-01T09:30:37.462Z,861.89
2023-01-01T09:31:37.503Z,861.93
2023-01-01T09:32:37.440Z,861.90
2023-01-01T09:33:37.431Z,861.88
2023-01-01T09:34:37.421Z,861.88
2023-01-01T09:35:37.425Z,861.84
2023-01-01T09:36:37.395Z,861.84
2023-01-01T09:37:37.425Z,861.88
2023-01-01T09:38:37.374Z,861.88
2023-01-01T09:39:37.369Z,861.87
2023-01-01T09:40:37.358Z,861.87
2023-01-01T09:41:37.357Z,861.89
2023-01-01T09:42:37.351Z,861.84
2023-01-01T09:43:37.367Z,861.81
2023-01-01T09:44:37.308Z,861.81
2023-01-01T09:45:37.323Z,861.84
2023-01-01T09:46:37.285Z,861.80
2023-01-01T09:47:37.288Z,861.90
2023-01-01T09:48:37.280Z,861.87
2023-01-01T09:49:37.271Z,861.83
2023-01-01T09:50:37.245Z,861.73
2023-01-01T09:51:43.262Z,861.76
2023-01-01T09:52:38.227Z,861.78
2023-01-01T09:53:37.218Z,861.75
2023-01-01T09:54:37.199Z,861.76
2023-01-01T09:55:37.216Z,861.76
2023-01-01T09:56:37.177Z,861.80
2023-01-01T09:57:37.167Z,861.83
2023-01-01T09:58:37.160Z,861.78
2023-01-01T09:59:37.146Z,861.77
2023-01-01T10:00:37.128Z,861.77
2023-01-01T10:01:37.247Z,861.77
2023-01-01T10:02:37.123Z,861.76
2023-01-01T10:03:37.159Z,861.78
2023-01-01T10:04:37.089Z,861.76
2023-01-01T10:05:37.079Z,861.77
2023-01-01T10:06:37.064Z,861.72
2023-01-01T10:07:37.086Z,861.75
2023-01-01T10:08:37.154Z,861.66
2023-01-01T10:09:37.033Z,861.67
2023-01-01T10:10:37.022Z,861.62
2023-01-01T10:11:37.019Z,861.61
2023-01-01T10:12:37.000Z,861.62
2023-01-01T10:13:37.009Z,861.65
2023-01-01T10:14:36.998Z,861.64
2023-01-01T10:15:36.972Z,861.65
2023-01-01T10:16:37.016Z,861.60
2023-01-01T10:17:36.949Z,861.56
2023-01-01T10:18:36.936Z,861.53
2023-01-01T10:19:36.952Z,861.56
2023-01-01T10:20:36.944Z,861.58
2023-01-01T10:21:40.697Z,861.60
2023-01-01T10:22:37.889Z,861.55
2023-01-01T10:23:36.908Z,861.59
2023-01-01T10:24:36.867Z,861.54
2023-01-01T10:25:36.888Z,861.53
2023-01-01T10:26:36.886Z,861.57
2023-01-01T10:27:36.843Z,861.48
2023-01-01T10:28:36.822Z,861.45
2023-01-01T10:29:36.843Z,861.40
2023-01-01T10:30:36.799Z,861.42
2023-01-01T10:31:36.864Z,861.43
2023-01-01T10:32:36.821Z,861.38
2023-01-01T10:33:36.773Z,861.46
2023-01-01T10:34:36.755Z,861.39
2023-01-01T10:35:36.749Z,861.46
2023-01-01T10:36:36.735Z,861.38
2023-01-01T10:37:36.768Z,861.41
2023-01-01T10:38:36.723Z,861.43
2023-01-01T10:39:36.729Z,861.42
2023-01-01T10:40:36.702Z,861.43
2023-01-01T10:41:36.679Z,861.42
2023-01-01T10:42:36.664Z,861.33
2023-01-01T10:43:36.673Z,861.35
2023-01-01T10:44:36.661Z,861.33
2023-01-01T10:45:36.708Z,861.33
2023-01-01T10:46:36.688Z,861.41
2023-01-01T10:47:36.613Z,861.37
2023-01-01T10:48:36.600Z,861.42
2023-01-01T10:49:36.617Z,861.39
2023-01-01T10:50:36.684Z,861.39
2023-01-01T10:51:36.566Z,861.38
2023-01-01T10:52:36.558Z,861.42
2023-01-01T10:53:36.548Z,861.41
2023-01-01T10:54:36.537Z,861.38
2023-01-01T10:55:36.554Z,861.39
2023-01-01T10:56:36.530Z,861.42
2023-01-01T10:57:36.518Z,861.37
2023-01-01T10:58:36.492Z,861.41
2023-01-01T10:59:36.479Z,861.35
2023-01-01T11:00:36.467Z,861.35
2023-01-01T11:01:36.644Z,861.31
2023-01-01T11:02:36.675Z,861.28
2023-01-01T11:03:36.441Z,861.32
2023-01-01T11:04:36.423Z,861.31
2023-01-01T11:05:36.419Z,861.27
2023-01-01T11:06:36.425Z,861.28
2023-01-01T11:07:36.412Z,861.29
2023-01-01T11:08:36.378Z,861.24
2023-01-01T11:09:36.377Z,861.24
2023-01-01T11:10:36.357Z,861.25
2023-01-01T11:11:36.383Z,861.21
2023-01-01T11:13:04.409Z,861.20
2023-01-01T11:13:37.354Z,861.18
2023-01-01T11:14:36.313Z,861.22
2023-01-01T11:15:36.322Z,861.20
2023-01-01T11:16:36.345Z,861.22
2023-01-01T11:17:36.300Z,861.22
2023-01-01T11:18:36.553Z,861.24
2023-01-01T11:19:36.285Z,861.19
2023-01-01T11:20:36.261Z,861.16
2023-01-01T11:21:36.238Z,861.16
2023-01-01T11:22:36.233Z,861.21
2023-01-01T11:23:36.236Z,861.18
2023-01-01T11:24:36.226Z,861.13
2023-01-01T11:25:36.240Z,861.11
2023-01-01T11:26:36.184Z,861.18
2023-01-01T11:27:36.292Z,861.14
2023-01-01T11:28:36.160Z,861.14
2023-01-01T11:29:36.153Z,861.12
2023-01-01T11:30:36.195Z,861.11
2023-01-01T11:31:36.149Z,861.05
2023-01-01T11:32:36.146Z,861.03
2023-01-01T11:33:36.125Z,861.02
2023-01-01T11:34:36.105Z,861.04
2023-01-01T11:35:36.088Z,860.97
2023-01-01T11:36:36.097Z,860.95
2023-01-01T11:37:36.138Z,860.89
2023-01-01T11:38:36.051Z,860.97
2023-01-01T11:39:36.044Z,860.92
2023-01-01T11:40:36.034Z,860.91
2023-01-01T11:41:36.025Z,860.86
2023-01-01T11:42:36.018Z,860.84
2023-01-01T11:43:36.044Z,860.84
2023-01-01T11:44:35.987Z,860.84
2023-01-01T11:45:38.059Z,860.83
2023-01-01T11:46:36.013Z,860.82
2023-01-01T11:47:35.970Z,860.84
2023-01-01T11:48:35.962Z,860.83
2023-01-01T11:49:35.950Z,860.84
2023-01-01T11:50:35.933Z,860.81
2023-01-01T11:51:35.931Z,860.80
2023-01-01T11:52:35.896Z,860.78
2023-01-01T11:53:35.887Z,860.78
2023-01-01T11:54:35.896Z,860.75
2023-01-01T11:55:35.881Z,860.75
2023-01-01T11:56:35.855Z,860.71
2023-01-01T11:57:35.857Z,860.69
2023-01-01T11:58:35.831Z,860.70
2023-01-01T11:59:35.843Z,860.68
2023-01-01T12:00:35.825Z,860.62
2023-01-01T12:01:35.894Z,860.62
2023-01-01T12:02:35.817Z,860.61
2023-01-01T12:03:35.847Z,860.58
2023-01-01T12:04:35.766Z,860.59
2023-01-01T12:05:35.775Z,860.51
2023-01-01T12:06:35.743Z,860.55
2023-01-01T12:07:35.751Z,860.54
2023-01-01T12:08:35.737Z,860.56
2023-01-01T12:09:35.726Z,860.51
2023-01-01T12:10:35.699Z,860.51
2023-01-01T12:11:35.692Z,860.51
2023-01-01T12:12:35.701Z,860.50
2023-01-01T12:13:35.683Z,860.50
2023-01-01T12:14:35.664Z,860.52
2023-01-01T12:15:35.741Z,860.53
2023-01-01T12:16:35.633Z,860.54
2023-01-01T12:17:35.635Z,860.50
2023-01-01T12:18:35.612Z,860.52
2023-01-01T12:19:35.622Z,860.48
2023-01-01T12:20:35.595Z,860.49
2023-01-01T12:21:35.587Z,860.50
2023-01-01T12:22:35.568Z,860.48
2023-01-01T12:23:35.568Z,860.47
2023-01-01T12:24:35.556Z,860.49
2023-01-01T12:25:35.581Z,860.47
2023-01-01T12:26:35.551Z,860.45
2023-01-01T12:27:35.563Z,860.45
2023-01-01T12:28:35.501Z,860.43
2023-01-01T12:29:35.602Z,860.45